createdAt,value
2023-04-16T04:34:29.071Z,8.10
2023-04-16T04:36:55.770Z,8.00
2023-04-16T04:39:22.620Z,8.10
2023-04-16T04:41:49.305Z,8.10
2023-04-16T04:44:15.914Z,7.90
2023-04-16T04:46:42.654Z,8.00
2023-04-16T04:49:09.528Z,8.00
2023-04-16T04:51:36.466Z,8.10
2023-04-16T04:54:03.116Z,8.10
2023-04-16T04:56:29.792Z,8.00
2023-04-16T04:58:56.573Z,8.10
2023-04-16T05:01:23.305Z,8.20
2023-04-16T05:03:50.204Z,8.30
2023-04-16T05:06:17.202Z,8.20
2023-04-16T05:08:43.976Z,8.40
2023-04-16T05:11:10.746Z,8.40
2023-04-16T05:13:37.564Z,8.50
2023-04-16T05:16:04.687Z,8.60
2023-04-16T05:18:32.758Z,8.50
2023-04-16T05:20:59.508Z,8.50
2023-04-16T05:23:26.277Z,8.60
2023-04-16T05:25:52.933Z,8.80
2023-04-16T05:28:19.641Z,8.70
2023-04-16T05:30:46.418Z,8.50
2023-04-16T05:33:13.245Z,8.50
2023-04-16T05:35:39.970Z,8.60
2023-04-16T05:38:06.666Z,8.50
2023-04-16T05:40:33.419Z,8.40
2023-04-16T05:43:00.292Z,8.40
2023-04-16T05:45:28.133Z,8.50
2023-04-16T05:47:55.183Z,8.40
2023-04-16T05:50:21.924Z,8.70
2023-04-16T05:52:48.612Z,8.80
2023-04-16T05:55:15.388Z,9.00
2023-04-16T05:57:42.217Z,9.20
2023-04-16T06:00:09.275Z,9.20
2023-04-16T06:02:36.330Z,9.20
2023-04-16T06:05:03.233Z,9.20
2023-04-16T06:07:30.536Z,9.30
2023-04-16T06:09:57.238Z,9.00
2023-04-16T06:12:24.029Z,9.10
2023-04-16T06:14:51.046Z,8.90
2023-04-16T06:17:17.883Z,8.90
2023-04-16T06:19:46.382Z,9.00
2023-04-16T06:22:13.236Z,8.90
2023-04-16T06:24:40.182Z,9.10
2023-04-16T06:27:06.954Z,9.20
2023-04-16T06:29:40.331Z,9.00
2023-04-16T06:32:08.565Z,9.00
2023-04-16T06:34:35.390Z,9.00
2023-04-16T06:37:02.132Z,9.20
2023-04-16T06:39:28.957Z,9.30
2023-04-16T06:41:56.043Z,9.20
2023-04-16T06:44:22.914Z,9.20
2023-04-16T06:46:51.173Z,9.00
2023-04-16T06:49:17.943Z,8.90
2023-04-16T06:51:44.778Z,8.90
2023-04-16T06:54:11.572Z,9.00
2023-04-16T06:56:38.540Z,9.10
2023-04-16T06:59:05.525Z,9.10
2023-04-16T07:01:32.604Z,9.30
2023-04-16T07:03:59.932Z,9.20
2023-04-16T07:06:27.212Z,9.30
2023-04-16T07:08:54.120Z,9.40
2023-04-16T07:11:21.153Z,9.50
2023-04-16T07:13:47.953Z,9.70
2023-04-16T07:16:15.294Z,9.80
2023-04-16T07:18:42.837Z,9.80
2023-04-16T07:21:11.255Z,9.50
2023-04-16T07:23:39.155Z,9.70
2023-04-16T07:26:13.408Z,9.70
2023-04-16T07:28:40.196Z,9.60
2023-04-16T07:31:06.994Z,9.70
2023-04-16T07:33:33.943Z,9.70
2023-04-16T07:36:00.778Z,9.60
2023-04-16T07:38:27.543Z,9.40
2023-04-16T07:40:55.878Z,9.20
2023-04-16T07:43:22.618Z,9.30
2023-04-16T07:45:49.259Z,9.10
2023-04-16T07:48:16.059Z,9.30
2023-04-16T07:50:45.681Z,9.70
2023-04-16T07:53:12.491Z,10.00
2023-04-16T07:55:39.189Z,10.20
2023-04-16T07:58:07.265Z,10.40
2023-04-16T08:00:34.189Z,10.40
2023-04-16T08:03:01.189Z,10.40
2023-04-16T08:05:28.124Z,10.50
2023-04-16T08:07:54.941Z,10.50
2023-04-16T08:10:24.400Z,10.50
2023-04-16T08:12:51.393Z,10.50
2023-04-16T08:15:18.520Z,10.50
2023-04-16T08:17:45.648Z,10.60
2023-04-16T08:20:15.663Z,10.60
2023-04-16T08:22:45.038Z,10.60
2023-04-16T08:25:12.134Z,10.60
2023-04-16T08:27:38.965Z,10.60
2023-04-16T08:30:06.357Z,10.20
2023-04-16T08:32:33.235Z,10.30
2023-04-16T08:35:00.253Z,10.20
2023-04-16T08:37:27.039Z,10.00
2023-04-16T08:39:53.764Z,10.00
2023-04-16T08:42:32.583Z,10.20
2023-04-16T08:45:18.441Z,10.30
2023-04-16T08:47:47.696Z,10.30
2023-04-16T08:50:24.262Z,10.20
2023-04-16T08:53:03.260Z,10.20
2023-04-16T08:55:38.895Z,10.40
2023-04-16T08:58:18.597Z,10.20
2023-04-16T09:00:46.437Z,10.30
2023-04-16T09:03:13.571Z,10.40
2023-04-16T09:05:42.539Z,10.40
2023-04-16T09:08:09.387Z,10.50
2023-04-16T09:10:36.129Z,10.40
2023-04-16T09:13:02.902Z,10.30
2023-04-16T09:15:30.059Z,10.50
2023-04-16T09:17:57.666Z,10.40
2023-04-16T09:20:24.695Z,10.60
2023-04-16T09:22:51.569Z,10.70
2023-04-16T09:25:22.421Z,10.80
2023-04-16T09:27:52.631Z,10.80
2023-04-16T09:30:24.027Z,10.90
2023-04-16T09:32:52.193Z,11.00
2023-04-16T09:35:19.959Z,11.10
2023-04-16T09:37:57.869Z,10.80
2023-04-16T09:40:26.837Z,10.90
2023-04-16T09:42:57.629Z,10.90
2023-04-16T09:45:24.459Z,11.10
2023-04-16T09:47:51.347Z,11.20
2023-04-16T09:50:20.162Z,11.40
2023-04-16T09:52:51.532Z,11.50
2023-04-16T09:55:23.832Z,11.50
2023-04-16T09:57:59.876Z,11.70
2023-04-16T10:00:26.697Z,11.70
2023-04-16T10:03:07.213Z,11.80
2023-04-16T10:05:34.654Z,11.80
2023-04-16T10:08:02.093Z,11.80
2023-04-16T10:10:29.691Z,11.60
2023-04-16T10:12:56.567Z,11.70
2023-04-16T10:15:23.559Z,11.90
2023-04-16T10:17:51.448Z,11.90
2023-04-16T10:20:18.942Z,12.00
2023-04-16T10:22:46.453Z,12.10
2023-04-16T10:25:13.419Z,12.10
2023-04-16T10:27:41.225Z,12.00
2023-04-16T10:30:09.457Z,12.10
2023-04-16T10:32:38.068Z,12.00
2023-04-16T10:35:05.711Z,12.00
2023-04-16T10:37:33.179Z,12.10
2023-04-16T10:40:00.044Z,12.10
2023-04-16T10:42:27.463Z,12.10
2023-04-16T10:44:54.117Z,12.20
2023-04-16T10:47:24.834Z,12.30
2023-04-16T10:49:52.122Z,12.50
2023-04-16T10:52:18.907Z,12.60
2023-04-16T10:54:47.938Z,12.50
2023-04-16T10:57:19.739Z,12.40
2023-04-16T10:59:49.037Z,12.50
2023-04-16T11:02:18.547Z,12.50
2023-04-16T11:04:47.404Z,12.50
2023-04-16T11:07:21.394Z,12.30
2023-04-16T11:09:51.218Z,12.30
2023-04-16T11:12:22.361Z,12.60
2023-04-16T11:14:51.711Z,12.60
2023-04-16T11:17:19.362Z,12.70
2023-04-16T11:19:46.844Z,12.90
2023-04-16T11:22:17.764Z,13.10
2023-04-16T11:24:47.821Z,13.40
2023-04-16T11:27:16.021Z,13.60
2023-04-16T11:29:43.492Z,13.80
2023-04-16T11:32:20.251Z,13.80
2023-04-16T11:34:47.180Z,13.70
2023-04-16T11:37:13.869Z,13.70
2023-04-16T11:39:53.323Z,13.50
2023-04-16T11:42:22.551Z,13.50
2023-04-16T11:44:54.460Z,13.50
2023-04-16T11:47:22.374Z,13.50
2023-04-16T11:49:49.301Z,13.40
2023-04-16T11:52:29.696Z,13.40
2023-04-16T11:54:57.443Z,13.50
2023-04-16T11:57:31.808Z,13.70
2023-04-16T12:00:02.358Z,13.70
2023-04-16T12:02:36.443Z,13.70
2023-04-16T12:05:04.600Z,13.60
2023-04-16T12:07:31.468Z,13.40
2023-04-16T12:10:09.174Z,13.50
2023-04-16T12:12:35.888Z,13.60
2023-04-16T12:15:03.892Z,13.80
2023-04-16T12:17:35.520Z,13.90
2023-04-16T12:20:13.564Z,13.90
2023-04-16T12:22:44.179Z,14.00
2023-04-16T12:25:13.988Z,14.20
2023-04-16T12:27:53.486Z,14.10
2023-04-16T12:30:22.844Z,14.30
2023-04-16T12:32:51.850Z,14.40
2023-04-16T12:35:32.532Z,14.40
2023-04-16T12:38:00.103Z,14.40
2023-04-16T12:40:27.382Z,14.40
2023-04-16T12:42:54.743Z,14.10
2023-04-16T12:45:21.919Z,13.90
2023-04-16T12:47:50.325Z,13.80
2023-04-16T12:50:17.672Z,13.80
2023-04-16T12:52:44.505Z,13.70
2023-04-16T12:55:12.432Z,13.60
2023-04-16T12:57:39.009Z,13.70
2023-04-16T13:00:06.661Z,13.70
2023-04-16T13:02:34.125Z,13.70
2023-04-16T13:05:01.393Z,13.70
2023-04-16T13:07:28.253Z,13.80
2023-04-16T13:09:54.895Z,13.80
2023-04-16T13:12:21.521Z,13.50
2023-04-16T13:14:48.135Z,13.30
2023-04-16T13:17:15.434Z,13.30
2023-04-16T13:19:42.031Z,13.30
2023-04-16T13:22:09.309Z,13.20
2023-04-16T13:24:36.124Z,13.30
2023-04-16T13:27:02.946Z,13.30
2023-04-16T13:29:30.738Z,13.30
2023-04-16T13:31:57.766Z,12.90
2023-04-16T13:34:24.449Z,12.80
2023-04-16T13:36:51.073Z,12.90
2023-04-16T13:39:18.268Z,12.80
2023-04-16T13:41:44.878Z,12.90
2023-04-16T13:44:11.509Z,12.90
2023-04-16T13:46:38.310Z,12.90
2023-04-16T13:49:05.052Z,13.00
2023-04-16T13:51:32.036Z,12.80
2023-04-16T13:53:58.729Z,12.80
2023-04-16T13:56:25.449Z,12.80
2023-04-16T13:58:52.285Z,12.80
2023-04-16T14:01:19.366Z,12.90
2023-04-16T14:03:46.475Z,12.90
2023-04-16T14:06:13.722Z,13.00
2023-04-16T14:08:40.594Z,12.90
2023-04-16T14:11:07.648Z,12.90
2023-04-16T14:13:34.513Z,12.90
2023-04-16T14:16:02.068Z,12.90
2023-04-16T14:18:28.713Z,12.80
2023-04-16T14:20:55.522Z,12.90
2023-04-16T14:23:22.137Z,12.90
2023-04-16T14:25:48.802Z,13.00
2023-04-16T14:28:16.001Z,12.90
2023-04-16T14:30:42.661Z,13.00
2023-04-16T14:33:09.553Z,13.10
2023-04-16T14:35:36.246Z,13.10
2023-04-16T14:38:02.968Z,13.10
2023-04-16T14:40:29.897Z,13.00
2023-04-16T14:42:56.500Z,13.00
2023-04-16T14:45:25.373Z,12.90
2023-04-16T14:47:52.103Z,12.90
2023-04-16T14:50:18.808Z,13.00
2023-04-16T14:52:45.549Z,13.00
2023-04-16T14:55:12.337Z,12.90
2023-04-16T14:57:39.208Z,12.80
2023-04-16T15:00:10.701Z,12.80
2023-04-16T15:02:37.928Z,12.80
2023-04-16T15:05:05.263Z,12.70
2023-04-16T15:07:32.502Z,12.70
2023-04-16T15:09:59.236Z,12.60
2023-04-16T15:12:26.469Z,12.70
2023-04-16T15:14:53.154Z,12.70
2023-04-16T15:17:20.379Z,12.70
2023-04-16T15:19:47.673Z,12.80
2023-04-16T15:22:14.824Z,12.80
2023-04-16T15:24:41.609Z,12.70
2023-04-16T15:27:11.615Z,12.70
2023-04-16T15:29:38.666Z,12.70
2023-04-16T15:32:06.848Z,12.60
2023-04-16T15:34:33.476Z,12.50
2023-04-16T15:37:00.309Z,12.30
2023-04-16T15:39:27.056Z,12.10
2023-04-16T15:42:01.143Z,12.20
2023-04-16T15:44:30.952Z,12.20
2023-04-16T15:46:57.608Z,12.20
2023-04-16T15:49:24.956Z,12.10
2023-04-16T15:51:52.402Z,12.10
2023-04-16T15:54:19.173Z,12.10
2023-04-16T15:56:46.609Z,12.00
2023-04-16T15:59:13.549Z,12.00
2023-04-16T16:01:40.647Z,12.00
2023-04-16T16:04:08.095Z,12.00
2023-04-16T16:06:35.335Z,11.90
2023-04-16T16:09:01.932Z,11.80
2023-04-16T16:11:28.541Z,11.70
2023-04-16T16:13:55.380Z,11.70
2023-04-16T16:16:22.215Z,11.60
2023-04-16T16:18:48.969Z,11.60
2023-04-16T16:21:16.092Z,11.70
2023-04-16T16:23:42.724Z,11.80
2023-04-16T16:26:09.423Z,11.80
2023-04-16T16:28:38.804Z,11.70
2023-04-16T16:31:06.820Z,11.60
2023-04-16T16:33:33.624Z,11.50
2023-04-16T16:36:00.565Z,11.30
2023-04-16T16:38:27.575Z,11.40
2023-04-16T16:40:54.175Z,11.50
2023-04-16T16:43:20.879Z,11.60
2023-04-16T16:45:47.558Z,11.70
2023-04-16T16:48:14.178Z,11.80
2023-04-16T16:50:40.855Z,11.80
2023-04-16T16:53:07.474Z,11.90
2023-04-16T16:55:35.426Z,12.00
2023-04-16T16:58:02.918Z,12.00
2023-04-16T17:00:29.583Z,12.00
2023-04-16T17:02:56.391Z,12.00
2023-04-16T17:05:23.354Z,12.00
2023-04-16T17:07:49.937Z,12.00
2023-04-16T17:10:20.768Z,11.90
2023-04-16T17:12:48.751Z,11.90
2023-04-16T17:15:16.644Z,11.80
2023-04-16T17:17:44.260Z,11.80
2023-04-16T17:20:12.344Z,11.80
2023-04-16T17:22:39.748Z,11.80
2023-04-16T17:25:07.754Z,11.90
2023-04-16T17:27:34.516Z,11.90
2023-04-16T17:30:02.324Z,11.90
2023-04-16T17:32:29.758Z,11.90
2023-04-16T17:34:56.672Z,11.70
2023-04-16T17:37:23.705Z,11.70
2023-04-16T17:39:51.409Z,11.70
2023-04-16T17:42:18.048Z,11.70
2023-04-16T17:44:44.837Z,11.60
2023-04-16T17:47:11.787Z,11.70
2023-04-16T17:49:38.387Z,11.70
2023-04-16T17:52:05.043Z,11.60
2023-04-16T17:54:31.647Z,11.50
2023-04-16T17:56:58.929Z,11.50
2023-04-16T17:59:25.664Z,11.40
2023-04-16T18:01:52.376Z,11.50
2023-04-16T18:04:19.563Z,11.40
2023-04-16T18:06:46.510Z,11.50
2023-04-16T18:09:14.224Z,11.50
2023-04-16T18:11:40.850Z,11.60
2023-04-16T18:14:09.771Z,11.60
2023-04-16T18:16:36.721Z,11.30
2023-04-16T18:19:03.382Z,11.20
2023-04-16T18:21:30.448Z,11.00
2023-04-16T18:23:57.620Z,11.20
2023-04-16T18:26:25.239Z,11.10
2023-04-16T18:28:52.421Z,11.20
2023-04-16T18:31:21.069Z,11.10
2023-04-16T18:33:56.871Z,11.20
2023-04-16T18:36:24.506Z,11.30
2023-04-16T18:39:01.054Z,11.10
2023-04-16T18:41:29.866Z,10.90
2023-04-16T18:43:56.856Z,10.40
2023-04-16T18:46:23.637Z,10.50
2023-04-16T18:48:50.377Z,10.50
2023-04-16T18:51:17.153Z,10.70
2023-04-16T18:53:45.520Z,10.60
2023-04-16T18:56:12.708Z,10.50
2023-04-16T18:58:39.382Z,10.50
2023-04-16T19:01:10.808Z,10.30
2023-04-16T19:03:38.276Z,10.10
2023-04-16T19:06:05.850Z,10.00
2023-04-16T19:08:32.470Z,10.00
2023-04-16T19:10:59.094Z,10.00
2023-04-16T19:13:25.873Z,10.00
2023-04-16T19:15:58.423Z,10.20
2023-04-16T19:18:25.293Z,10.20
2023-04-16T19:20:51.932Z,10.30
2023-04-16T19:23:19.156Z,10.40
2023-04-16T19:25:46.517Z,10.50
2023-04-16T19:28:13.187Z,10.60
2023-04-16T19:30:40.300Z,10.60
2023-04-16T19:33:06.994Z,10.50
2023-04-16T19:35:34.630Z,10.40
2023-04-16T19:38:01.305Z,10.40
2023-04-16T19:40:27.972Z,10.40
2023-04-16T19:42:54.904Z,10.50
2023-04-16T19:45:25.667Z,10.60
2023-04-16T19:47:52.492Z,10.70
2023-04-16T19:50:19.791Z,10.90
2023-04-16T19:52:46.493Z,10.60
2023-04-16T19:55:13.277Z,10.70
2023-04-16T19:57:39.925Z,10.70
2023-04-16T20:00:11.806Z,10.50
2023-04-16T20:02:38.673Z,10.40
2023-04-16T20:05:05.584Z,10.40
2023-04-16T20:07:32.310Z,10.50
2023-04-16T20:09:59.092Z,10.50
2023-04-16T20:12:25.881Z,10.50
2023-04-16T20:14:52.587Z,10.20
2023-04-16T20:17:19.991Z,10.20
2023-04-16T20:19:51.029Z,10.20
2023-04-16T20:22:18.626Z,10.20
2023-04-16T20:24:47.863Z,10.40
2023-04-16T20:27:15.159Z,10.50
2023-04-16T20:29:41.999Z,10.30
2023-04-16T20:32:08.725Z,10.30
2023-04-16T20:34:36.526Z,10.30
2023-04-16T20:37:06.340Z,10.50
2023-04-16T20:39:34.189Z,10.50
2023-04-16T20:42:04.234Z,10.30
2023-04-16T20:44:40.120Z,10.30
2023-04-16T20:47:11.611Z,10.40
2023-04-16T20:49:38.409Z,10.60
2023-04-16T20:52:05.615Z,10.80
2023-04-16T20:54:32.244Z,10.80
2023-04-16T20:56:59.115Z,10.90
2023-04-16T20:59:26.105Z,10.90
2023-04-16T21:01:52.847Z,11.00
2023-04-16T21:04:19.653Z,10.90
2023-04-16T21:06:46.681Z,10.80
2023-04-16T21:09:13.451Z,10.80
2023-04-16T21:11:40.329Z,10.90
2023-04-16T21:14:07.015Z,10.80
2023-04-16T21:16:33.732Z,11.00
2023-04-16T21:19:00.425Z,10.90
2023-04-16T21:21:27.463Z,10.90
2023-04-16T21:23:54.174Z,10.90
2023-04-16T21:26:20.884Z,11.00
2023-04-16T21:28:47.554Z,10.80
2023-04-16T21:31:14.229Z,10.90
2023-04-16T21:33:40.896Z,10.90
2023-04-16T21:36:07.789Z,11.00
2023-04-16T21:38:34.431Z,11.10
2023-04-16T21:41:01.872Z,11.00
2023-04-16T21:43:32.200Z,11.10
2023-04-16T21:45:59.512Z,11.10
2023-04-16T21:48:29.223Z,11.00
2023-04-16T21:51:06.007Z,11.00
2023-04-16T21:53:33.354Z,11.00
2023-04-16T21:55:59.967Z,11.00
2023-04-16T21:58:26.759Z,11.00
2023-04-16T22:00:53.892Z,11.00
2023-04-16T22:03:26.267Z,11.00
2023-04-16T22:06:02.850Z,11.00
2023-04-16T22:08:30.218Z,11.10
2023-04-16T22:11:01.951Z,11.00
2023-04-16T22:13:30.072Z,11.00
2023-04-16T22:15:57.705Z,11.10
2023-04-16T22:18:25.747Z,11.10
2023-04-16T22:20:55.695Z,11.20
2023-04-16T22:23:23.482Z,11.20
2023-04-16T22:25:50.499Z,11.20
2023-04-16T22:28:17.104Z,11.20
2023-04-16T22:30:43.752Z,11.10
2023-04-16T22:33:11.123Z,11.00
2023-04-16T22:35:37.790Z,11.10
2023-04-16T22:38:04.533Z,10.90
2023-04-16T22:40:31.952Z,11.00
2023-04-16T22:42:58.554Z,11.00
2023-04-16T22:45:25.739Z,11.00
2023-04-16T22:47:52.454Z,10.90
2023-04-16T22:50:19.337Z,11.00
2023-04-16T22:52:45.993Z,11.00
2023-04-16T22:55:12.653Z,11.00
2023-04-16T22:57:39.272Z,11.00
